createdAt,value
2019-05-03T00:01:41.963Z,12.27
2019-05-03T00:04:12.009Z,12.03
2019-05-03T00:06:40.266Z,12.60
2019-05-03T00:09:11.899Z,13.00
2019-05-03T00:11:42.117Z,13.00
2019-05-03T00:14:12.315Z,12.60
2019-05-03T00:16:41.938Z,12.03
2019-05-03T00:19:10.222Z,12.20
2019-05-03T00:21:38.486Z,12.43
2019-05-03T00:24:06.782Z,11.80
2019-05-03T00:26:35.115Z,12.20
2019-05-03T00:29:03.480Z,12.30
2019-05-03T00:31:39.224Z,12.53
2019-05-03T00:34:09.130Z,13.23
2019-05-03T00:36:47.590Z,13.20
2019-05-03T00:39:29.400Z,12.17
2019-05-03T00:41:57.646Z,13.40
2019-05-03T00:44:25.918Z,13.53
2019-05-03T00:46:54.244Z,15.90
2019-05-03T00:49:22.709Z,18.20
2019-05-03T00:51:51.659Z,18.07
2019-05-03T00:54:22.169Z,17.37
2019-05-03T00:56:49.984Z,18.60
2019-05-03T00:59:18.257Z,19.93
2019-05-03T01:01:46.584Z,19.23
2019-05-03T01:04:14.846Z,20.50
2019-05-03T01:06:43.102Z,20.97
2019-05-03T01:09:15.806Z,20.23
2019-05-03T01:11:44.050Z,20.03
2019-05-03T01:14:12.852Z,20.30
2019-05-03T01:16:42.719Z,20.73
2019-05-03T01:19:12.072Z,20.77
2019-05-03T01:21:42.229Z,20.17
2019-05-03T01:24:32.113Z,19.57
2019-05-03T01:27:01.832Z,20.00
2019-05-03T01:29:29.772Z,20.63
2019-05-03T01:31:58.144Z,18.60
2019-05-03T01:34:26.394Z,20.03
2019-05-03T01:36:54.682Z,20.83
2019-05-03T01:39:22.932Z,19.13
2019-05-03T01:41:51.912Z,19.30
2019-05-03T01:44:22.032Z,20.07
2019-05-03T01:46:51.972Z,19.57
2019-05-03T01:49:22.853Z,20.17
2019-05-03T01:51:55.656Z,20.07
2019-05-03T01:54:23.926Z,20.10
2019-05-03T01:56:58.673Z,20.57
2019-05-03T01:59:22.703Z,20.33
2019-05-03T02:02:08.055Z,20.17
2019-05-03T02:04:43.799Z,20.27
2019-05-03T02:07:12.098Z,20.13
2019-05-03T02:09:41.680Z,20.50
2019-05-03T02:12:10.032Z,20.37
2019-05-03T02:14:38.302Z,19.83
2019-05-03T02:17:06.644Z,19.17
2019-05-03T02:19:34.898Z,18.87
2019-05-03T02:22:03.258Z,18.90
2019-05-03T02:24:32.729Z,18.40
2019-05-03T02:27:02.154Z,18.93
2019-05-03T02:29:32.401Z,17.97
2019-05-03T02:32:02.968Z,17.47
2019-05-03T02:34:32.657Z,17.13
2019-05-03T02:37:03.081Z,17.60
2019-05-03T02:39:33.189Z,14.37
2019-05-03T02:42:10.122Z,10.53
2019-05-03T02:44:30.303Z,9.13
2019-05-03T02:47:00.214Z,8.60
2019-05-03T02:49:30.100Z,8.80
2019-05-03T02:51:58.353Z,7.57
2019-05-03T02:54:27.224Z,7.90
2019-05-03T02:56:56.079Z,7.47
2019-05-03T02:59:26.394Z,7.40
2019-05-03T03:01:55.794Z,6.23
2019-05-03T03:04:26.020Z,6.57
2019-05-03T03:06:55.916Z,5.93
2019-05-03T03:09:25.989Z,5.90
2019-05-03T03:11:55.980Z,5.63
2019-05-03T03:14:25.683Z,5.70
2019-05-03T03:16:55.969Z,5.57
2019-05-03T03:19:26.321Z,5.90
2019-05-03T03:21:56.263Z,5.97
2019-05-03T03:24:26.173Z,6.13
2019-05-03T03:26:56.486Z,6.50
2019-05-03T03:29:26.620Z,7.10
2019-05-03T03:31:59.380Z,6.43
2019-05-03T03:34:29.189Z,6.27
2019-05-03T03:37:04.209Z,5.20
2019-05-03T03:39:27.796Z,4.37
2019-05-03T03:41:56.923Z,3.23
2019-05-03T03:44:25.818Z,2.70
2019-05-03T03:46:56.155Z,2.70
2019-05-03T03:49:26.339Z,2.40
2019-05-03T03:51:56.434Z,2.97
2019-05-03T03:54:26.064Z,2.90
2019-05-03T03:57:03.243Z,2.70
2019-05-03T03:59:26.496Z,2.53
2019-05-03T04:01:55.408Z,2.70
2019-05-03T04:04:26.015Z,2.87
2019-05-03T04:06:58.379Z,2.50
2019-05-03T04:09:25.591Z,2.80
2019-05-03T04:11:56.424Z,2.60
2019-05-03T04:14:27.777Z,3.07
2019-05-03T04:17:01.699Z,2.90
2019-05-03T04:19:31.515Z,3.00
2019-05-03T04:21:59.852Z,2.97
2019-05-03T04:24:28.475Z,3.10
2019-05-03T04:27:15.517Z,3.00
2019-05-03T04:29:36.690Z,3.67
2019-05-03T04:32:06.384Z,3.60
2019-05-03T04:34:35.857Z,3.60
2019-05-03T04:37:05.335Z,3.20
2019-05-03T04:39:35.894Z,3.73
2019-05-03T04:42:06.551Z,3.97
2019-05-03T04:44:35.856Z,3.40
2019-05-03T04:47:06.896Z,3.87
2019-05-03T04:49:36.177Z,3.53
2019-05-03T04:52:05.855Z,4.03
2019-05-03T04:54:44.955Z,3.90
2019-05-03T04:57:12.241Z,3.83
2019-05-03T04:59:40.488Z,3.93
2019-05-03T05:02:08.732Z,3.93
2019-05-03T05:04:37.032Z,4.33
2019-05-03T05:07:06.215Z,4.20
2019-05-03T05:09:35.111Z,4.73
2019-05-03T05:12:05.708Z,4.00
2019-05-03T05:14:35.290Z,3.73
2019-05-03T05:17:05.845Z,3.83
2019-05-03T05:19:44.591Z,3.80
2019-05-03T05:22:15.533Z,3.63
2019-05-03T05:24:44.978Z,3.93
2019-05-03T05:27:17.811Z,3.93
2019-05-03T05:29:46.227Z,4.43
2019-05-03T05:32:14.553Z,4.17
2019-05-03T05:34:42.814Z,3.90
2019-05-03T05:37:11.029Z,4.20
2019-05-03T05:39:39.211Z,4.17
2019-05-03T05:42:07.429Z,3.90
2019-05-03T05:44:35.593Z,4.80
2019-05-03T05:47:11.027Z,4.33
2019-05-03T05:49:44.351Z,4.53
2019-05-03T05:52:12.833Z,4.63
2019-05-03T05:54:42.711Z,4.60
2019-05-03T05:57:25.622Z,4.77
2019-05-03T05:59:55.692Z,4.30
2019-05-03T06:02:25.367Z,4.23
2019-05-03T06:04:54.421Z,4.27
2019-05-03T06:07:30.013Z,5.07
2019-05-03T06:10:02.721Z,4.80
2019-05-03T06:12:32.496Z,4.60
2019-05-03T06:15:02.316Z,4.30
2019-05-03T06:17:37.881Z,4.80
2019-05-03T06:20:07.981Z,4.27
2019-05-03T06:22:37.827Z,4.37
2019-05-03T06:25:20.284Z,4.20
2019-05-03T06:27:48.491Z,4.60
2019-05-03T06:30:27.037Z,4.83
2019-05-03T06:32:55.194Z,4.60
2019-05-03T06:35:24.385Z,5.07
2019-05-03T06:37:54.486Z,4.93
2019-05-03T06:40:22.685Z,4.63
2019-05-03T06:42:54.654Z,4.60
2019-05-03T06:45:20.711Z,4.30
2019-05-03T06:47:50.050Z,4.57
2019-05-03T06:50:19.383Z,4.03
2019-05-03T06:52:48.265Z,4.43
2019-05-03T06:55:16.404Z,3.70
2019-05-03T06:57:49.496Z,3.60
2019-05-03T07:00:18.003Z,3.43
2019-05-03T07:02:51.021Z,3.43
2019-05-03T07:05:25.052Z,3.40
2019-05-03T07:07:57.630Z,3.47
2019-05-03T07:10:27.493Z,3.77
2019-05-03T07:13:00.054Z,3.33
2019-05-03T07:15:28.546Z,3.33
2019-05-03T07:17:56.930Z,3.17
2019-05-03T07:20:25.596Z,2.97
2019-05-03T07:22:55.766Z,3.47
2019-05-03T07:25:25.645Z,3.00
2019-05-03T07:27:55.581Z,3.60
2019-05-03T07:30:24.758Z,3.30
2019-05-03T07:32:54.909Z,3.47
2019-05-03T07:35:25.004Z,3.30
2019-05-03T07:37:55.178Z,3.30
2019-05-03T07:40:25.070Z,3.30
2019-05-03T07:42:52.844Z,3.20
2019-05-03T07:45:21.153Z,3.10
2019-05-03T07:47:49.412Z,3.00
2019-05-03T07:50:17.745Z,2.80
2019-05-03T07:52:45.963Z,2.80
2019-05-03T07:55:14.938Z,2.70
2019-05-03T07:57:48.027Z,2.93
2019-05-03T08:00:18.106Z,2.60
2019-05-03T08:02:46.325Z,2.50
2019-05-03T08:05:15.562Z,2.40
2019-05-03T08:07:46.185Z,2.30
2019-05-03T08:10:15.266Z,2.50
2019-05-03T08:12:45.211Z,2.50
2019-05-03T08:15:15.606Z,2.10
2019-05-03T08:17:45.016Z,2.03
2019-05-03T08:20:14.413Z,2.10
2019-05-03T08:22:44.719Z,1.90
2019-05-03T08:25:14.577Z,1.80
2019-05-03T08:27:44.522Z,1.93
2019-05-03T08:30:14.737Z,2.73
2019-05-03T08:32:57.076Z,2.20
2019-05-03T08:35:26.921Z,2.20
2019-05-03T08:37:56.951Z,2.23
2019-05-03T08:40:27.036Z,2.30
2019-05-03T08:42:55.175Z,2.23
2019-05-03T08:45:25.477Z,2.23
2019-05-03T08:47:55.375Z,2.30
2019-05-03T08:50:25.494Z,2.40
2019-05-03T08:52:55.521Z,1.93
2019-05-03T08:55:25.013Z,2.20
2019-05-03T08:57:55.162Z,2.30
2019-05-03T09:00:24.970Z,4.30
2019-05-03T09:02:54.912Z,2.30
2019-05-03T09:05:25.067Z,2.20
2019-05-03T09:07:54.902Z,2.27
2019-05-03T09:10:27.348Z,2.20
2019-05-03T09:13:06.667Z,2.07
2019-05-03T09:15:36.381Z,2.10
2019-05-03T09:18:04.933Z,2.00
2019-05-03T09:20:35.407Z,2.13
2019-05-03T09:23:05.307Z,1.90
2019-05-03T09:25:35.471Z,2.00
2019-05-03T09:28:04.803Z,1.80
2019-05-03T09:30:33.201Z,2.00
2019-05-03T09:33:01.348Z,2.23
2019-05-03T09:35:33.036Z,1.90
2019-05-03T09:37:59.441Z,1.90
2019-05-03T09:40:27.603Z,2.03
2019-05-03T09:42:55.811Z,2.10
2019-05-03T09:45:24.589Z,2.10
2019-05-03T09:47:55.024Z,2.10
2019-05-03T09:50:24.594Z,2.37
2019-05-03T09:52:55.340Z,2.10
2019-05-03T09:55:41.728Z,2.20
2019-05-03T09:58:10.014Z,2.20
2019-05-03T10:00:38.317Z,2.60
2019-05-03T10:03:06.713Z,2.00
2019-05-03T10:05:35.215Z,1.80
2019-05-03T10:08:05.129Z,2.10
2019-05-03T10:10:35.704Z,2.67
2019-05-03T10:13:12.998Z,1.70
2019-05-03T10:15:36.859Z,2.10
2019-05-03T10:18:10.311Z,1.97
2019-05-03T10:20:35.229Z,1.90
2019-05-03T10:23:06.162Z,2.33
2019-05-03T10:25:35.803Z,2.20
2019-05-03T10:28:05.777Z,2.60
2019-05-03T10:30:35.415Z,2.70
2019-05-03T10:33:08.289Z,2.40
2019-05-03T10:35:36.531Z,2.60
2019-05-03T10:38:05.769Z,2.50
2019-05-03T10:40:35.743Z,2.43
2019-05-03T10:43:04.893Z,2.43
2019-05-03T10:45:35.349Z,2.10
2019-05-03T10:48:04.815Z,2.20
2019-05-03T10:50:34.844Z,2.23
2019-05-03T10:53:07.031Z,2.30
2019-05-03T10:55:35.843Z,2.50
2019-05-03T10:58:19.786Z,2.57
2019-05-03T11:00:53.244Z,2.50
2019-05-03T11:03:19.745Z,2.30
2019-05-03T11:05:47.881Z,2.67
2019-05-03T11:08:16.113Z,2.50
2019-05-03T11:10:44.573Z,2.30
2019-05-03T11:13:15.267Z,2.20
2019-05-03T11:15:44.417Z,2.23
2019-05-03T11:18:14.635Z,2.17
2019-05-03T11:20:42.724Z,2.27
2019-05-03T11:23:11.008Z,2.30
2019-05-03T11:25:39.153Z,2.10
2019-05-03T11:28:25.025Z,2.93
2019-05-03T11:31:01.336Z,2.60
2019-05-03T11:33:30.829Z,2.20
2019-05-03T11:36:04.427Z,1.90
2019-05-03T11:38:34.953Z,1.90
2019-05-03T11:41:04.853Z,2.20
2019-05-03T11:43:34.941Z,2.30
2019-05-03T11:46:03.322Z,2.00
2019-05-03T11:48:31.562Z,2.33
2019-05-03T11:50:59.767Z,2.20
2019-05-03T11:53:28.010Z,2.07
2019-05-03T11:55:56.239Z,2.27
2019-05-03T11:58:26.965Z,2.37
2019-05-03T12:01:11.217Z,2.50
2019-05-03T12:03:36.670Z,2.00
2019-05-03T12:06:05.051Z,2.00
2019-05-03T12:08:34.609Z,2.10
2019-05-03T12:11:03.055Z,1.90
2019-05-03T12:13:31.655Z,1.90
2019-05-03T12:16:00.337Z,2.20
2019-05-03T12:18:29.132Z,2.10
2019-05-03T12:20:58.818Z,2.13
2019-05-03T12:23:30.993Z,2.40
2019-05-03T12:25:58.133Z,2.40
2019-05-03T12:28:26.548Z,2.20
2019-05-03T12:30:54.813Z,2.00
2019-05-03T12:33:25.837Z,2.40
2019-05-03T12:35:55.065Z,2.30
2019-05-03T12:38:25.348Z,2.60
2019-05-03T12:40:54.486Z,2.00
2019-05-03T12:43:22.699Z,2.25
2019-05-03T12:45:51.114Z,2.40
2019-05-03T12:48:19.322Z,2.20
2019-05-03T12:50:48.202Z,2.27
2019-05-03T12:53:16.749Z,2.17
2019-05-03T12:55:44.958Z,2.23
2019-05-03T12:58:14.934Z,2.20
2019-05-03T13:00:50.898Z,2.20
2019-05-03T13:03:30.057Z,2.23
2019-05-03T13:05:58.294Z,1.93
2019-05-03T13:08:31.068Z,2.20
2019-05-03T13:10:59.270Z,2.10
2019-05-03T13:13:27.514Z,2.70
2019-05-03T13:15:55.815Z,2.23
2019-05-03T13:18:25.222Z,2.20
2019-05-03T13:20:55.659Z,2.20
2019-05-03T13:23:25.378Z,2.30
2019-05-03T13:25:53.855Z,2.37
2019-05-03T13:28:22.085Z,2.00
2019-05-03T13:30:50.291Z,1.93
2019-05-03T13:33:18.477Z,2.10
2019-05-03T13:35:46.683Z,2.00
2019-05-03T13:38:14.989Z,1.80
2019-05-03T13:40:45.193Z,2.00
2019-05-03T13:43:14.854Z,2.07
2019-05-03T13:45:44.961Z,2.00
2019-05-03T13:48:15.379Z,1.80
2019-05-03T13:50:44.605Z,2.10
2019-05-03T13:53:16.010Z,1.90
2019-05-03T13:55:44.491Z,1.70
2019-05-03T13:58:14.708Z,1.60
2019-05-03T14:00:42.802Z,1.80
2019-05-03T14:03:11.032Z,1.80
2019-05-03T14:05:39.246Z,1.50
2019-05-03T14:08:07.475Z,2.00
2019-05-03T14:10:36.090Z,1.87
2019-05-03T14:13:05.610Z,1.77
2019-05-03T14:15:34.864Z,1.80
2019-05-03T14:18:05.615Z,1.97
2019-05-03T14:20:37.762Z,1.90
2019-05-03T14:23:06.072Z,1.80
2019-05-03T14:25:35.079Z,2.00
2019-05-03T14:28:05.319Z,1.80
2019-05-03T14:30:34.665Z,1.70
2019-05-03T14:33:05.087Z,2.40
2019-05-03T14:35:34.653Z,2.00
2019-05-03T14:38:02.952Z,1.63
2019-05-03T14:40:31.191Z,1.60
2019-05-03T14:42:59.406Z,1.90
2019-05-03T14:45:27.565Z,2.23
2019-05-03T14:47:57.740Z,1.87
2019-05-03T14:50:25.665Z,2.10
2019-05-03T14:52:56.742Z,2.00
2019-05-03T14:55:34.702Z,2.00
2019-05-03T14:58:07.369Z,1.80
2019-05-03T15:00:39.993Z,1.57
2019-05-03T15:03:09.854Z,1.70
2019-05-03T15:05:38.079Z,1.80
2019-05-03T15:08:06.381Z,2.00
2019-05-03T15:10:35.030Z,1.70
2019-05-03T15:13:05.206Z,2.00
2019-05-03T15:15:34.669Z,1.90
2019-05-03T15:18:03.055Z,2.10
2019-05-03T15:20:31.345Z,1.63
2019-05-03T15:22:59.526Z,1.83
2019-05-03T15:25:27.739Z,1.90
2019-05-03T15:27:55.895Z,1.77
2019-05-03T15:30:25.575Z,2.00
2019-05-03T15:33:00.228Z,1.73
2019-05-03T15:35:25.729Z,1.90
2019-05-03T15:37:55.650Z,1.90
2019-05-03T15:40:25.123Z,1.90
2019-05-03T15:42:55.054Z,1.63
2019-05-03T15:45:28.006Z,2.03
2019-05-03T15:48:06.978Z,2.10
2019-05-03T15:50:35.629Z,1.90
2019-05-03T15:53:04.414Z,1.90
2019-05-03T15:55:32.750Z,1.70
2019-05-03T15:58:01.035Z,1.90
2019-05-03T16:00:29.180Z,1.63
2019-05-03T16:03:07.411Z,1.97
2019-05-03T16:05:27.234Z,1.70
2019-05-03T16:07:55.471Z,1.80
2019-05-03T16:10:24.933Z,1.90
2019-05-03T16:12:54.528Z,1.70
2019-05-03T16:15:24.617Z,1.80
2019-05-03T16:17:54.580Z,1.90
2019-05-03T16:20:25.084Z,1.90
2019-05-03T16:22:54.437Z,1.80
2019-05-03T16:25:24.908Z,1.90
2019-05-03T16:27:55.330Z,2.10
2019-05-03T16:30:37.767Z,1.70
2019-05-03T16:33:05.982Z,1.90
2019-05-03T16:35:34.975Z,1.90
2019-05-03T16:38:06.013Z,1.83
2019-05-03T16:40:54.542Z,1.70
2019-05-03T16:43:22.852Z,1.97
2019-05-03T16:45:51.078Z,2.10
2019-05-03T16:48:19.344Z,2.07
2019-05-03T16:50:47.624Z,2.07
2019-05-03T16:53:15.884Z,1.80
2019-05-03T16:55:44.416Z,1.83
2019-05-03T16:58:14.954Z,2.07
2019-05-03T17:00:44.675Z,2.03
2019-05-03T17:03:14.679Z,1.70
2019-05-03T17:05:50.548Z,1.40
2019-05-03T17:08:25.086Z,1.87
2019-05-03T17:11:01.003Z,2.20
2019-05-03T17:13:29.269Z,1.90
2019-05-03T17:15:57.522Z,1.80
2019-05-03T17:18:25.759Z,2.10
2019-05-03T17:20:54.798Z,1.97
2019-05-03T17:23:24.622Z,2.40
2019-05-03T17:25:53.181Z,2.20
2019-05-03T17:28:21.416Z,1.80
2019-05-03T17:30:49.659Z,2.30
2019-05-03T17:33:17.882Z,2.37
2019-05-03T17:35:46.205Z,1.80
2019-05-03T17:38:14.467Z,2.17
2019-05-03T17:40:56.811Z,2.17
2019-05-03T17:43:32.177Z,1.93
2019-05-03T17:46:02.089Z,1.90
2019-05-03T17:48:30.591Z,2.10
2019-05-03T17:50:59.001Z,2.33
2019-05-03T17:53:28.827Z,2.17
2019-05-03T17:56:15.373Z,2.07
2019-05-03T17:58:55.166Z,2.60
2019-05-03T18:01:25.185Z,2.17
2019-05-03T18:04:06.569Z,2.20
2019-05-03T18:06:29.928Z,3.40
2019-05-03T18:09:11.977Z,2.23
2019-05-03T18:11:41.910Z,2.10
2019-05-03T18:14:10.129Z,2.00
2019-05-03T18:16:38.369Z,2.23
2019-05-03T18:19:06.545Z,2.10
2019-05-03T18:21:34.945Z,2.33
2019-05-03T18:24:04.775Z,2.20
2019-05-03T18:26:35.393Z,2.37
2019-05-03T18:29:03.157Z,1.97
2019-05-03T18:31:31.345Z,2.20
2019-05-03T18:33:59.890Z,2.90
2019-05-03T18:36:28.144Z,3.47
2019-05-03T18:38:56.362Z,2.90
2019-05-03T18:41:25.488Z,2.60
2019-05-03T18:43:58.463Z,2.87
2019-05-03T18:46:35.294Z,2.80
2019-05-03T18:49:04.512Z,2.73
2019-05-03T18:51:34.412Z,2.80
2019-05-03T18:54:05.402Z,2.70
2019-05-03T18:56:34.582Z,2.40
2019-05-03T18:59:02.806Z,2.80
2019-05-03T19:01:31.020Z,2.47
2019-05-03T19:04:04.902Z,2.50
2019-05-03T19:06:34.718Z,3.00
2019-05-03T19:12:05.703Z,4.10
2019-05-03T19:14:33.942Z,3.80
2019-05-03T19:17:20.309Z,3.80
2019-05-03T19:19:58.830Z,4.33
2019-05-03T19:22:27.143Z,4.97
2019-05-03T19:24:55.395Z,4.33
2019-05-03T19:27:25.171Z,5.23
2019-05-03T19:29:55.490Z,5.20
2019-05-03T19:32:27.860Z,5.43
2019-05-03T19:34:54.929Z,5.73
2019-05-03T19:37:25.121Z,5.30
2019-05-03T19:39:55.221Z,4.37
2019-05-03T19:42:26.892Z,3.57
2019-05-03T19:44:55.135Z,3.13
2019-05-03T19:47:25.179Z,2.93
2019-05-03T19:49:54.676Z,3.10
2019-05-03T19:52:31.196Z,3.27
2019-05-03T19:54:59.707Z,2.90
2019-05-03T19:57:36.066Z,3.40
2019-05-03T20:00:08.913Z,3.60
2019-05-03T20:02:57.947Z,3.10
2019-05-03T20:05:44.946Z,3.40
2019-05-03T20:08:17.512Z,3.47
2019-05-03T20:10:45.829Z,3.67
2019-05-03T20:13:15.168Z,3.47
2019-05-03T20:15:45.036Z,3.57
2019-05-03T20:18:15.239Z,3.20
2019-05-03T20:20:44.678Z,3.37
2019-05-03T20:23:14.663Z,3.50
2019-05-03T20:25:43.181Z,3.43
2019-05-03T20:28:11.505Z,3.30
2019-05-03T20:30:39.764Z,3.70
2019-05-03T20:33:08.019Z,3.30
2019-05-03T20:35:36.475Z,3.83
2019-05-03T20:38:04.717Z,3.83
2019-05-03T20:40:34.952Z,3.60
2019-05-03T20:43:20.993Z,3.87
2019-05-03T20:45:54.703Z,3.90
2019-05-03T20:48:24.944Z,4.47
2019-05-03T20:50:55.069Z,5.27
2019-05-03T20:53:25.129Z,6.27
2019-05-03T20:55:54.558Z,7.87
2019-05-03T20:58:25.073Z,8.90
2019-05-03T21:00:54.531Z,5.50
2019-05-03T21:03:24.657Z,6.07
2019-05-03T21:05:52.726Z,6.10
2019-05-03T21:08:20.969Z,5.27
2019-05-03T21:10:49.214Z,3.80
2019-05-03T21:13:17.438Z,4.33
2019-05-03T21:15:59.168Z,4.30
2019-05-03T21:18:34.732Z,4.17
2019-05-03T21:21:16.760Z,4.47
2019-05-03T21:26:16.635Z,4.20
2019-05-03T21:28:45.082Z,4.43
2019-05-03T21:31:13.317Z,4.50
2019-05-03T21:33:41.531Z,4.57
2019-05-03T21:36:09.764Z,4.37
2019-05-03T21:38:40.725Z,5.33
2019-05-03T21:41:07.819Z,4.27
2019-05-03T21:43:36.102Z,4.70
2019-05-03T21:46:05.969Z,4.07
2019-05-03T21:48:50.696Z,4.50
2019-05-03T21:51:18.889Z,4.53
2019-05-03T21:53:47.031Z,4.30
2019-05-03T21:56:15.176Z,4.47
2019-05-03T21:58:44.713Z,4.73
2019-05-03T22:01:15.508Z,4.27
2019-05-03T22:03:44.751Z,4.27
2019-05-03T22:06:15.454Z,4.33
2019-05-03T22:08:43.154Z,4.63
2019-05-03T22:11:11.442Z,4.70
2019-05-03T22:13:40.235Z,4.10
2019-05-03T22:16:12.577Z,4.43
2019-05-03T22:18:41.353Z,4.80
2019-05-03T22:21:17.151Z,4.40
2019-05-03T22:23:59.441Z,5.00
2019-05-03T22:26:46.109Z,4.27
2019-05-03T22:29:17.117Z,4.53
2019-05-03T22:31:45.305Z,4.60
2019-05-03T22:34:15.118Z,4.70
2019-05-03T22:36:44.436Z,4.80
2019-05-03T22:39:12.905Z,4.77
2019-05-03T22:41:41.126Z,5.17
2019-05-03T22:44:09.429Z,4.47
2019-05-03T22:46:37.640Z,5.07
2019-05-03T22:49:05.780Z,4.60
2019-05-03T22:51:34.556Z,4.80
2019-05-03T22:54:04.614Z,4.87
2019-05-03T22:56:32.746Z,4.77
2019-05-03T22:59:00.976Z,4.80
2019-05-03T23:01:29.217Z,5.20
2019-05-03T23:03:57.457Z,4.83
2019-05-03T23:06:25.690Z,5.10
2019-05-03T23:08:55.949Z,4.63
2019-05-03T23:11:24.556Z,5.20
2019-05-03T23:13:57.513Z,5.10
2019-05-03T23:16:25.751Z,5.00
2019-05-03T23:18:54.818Z,4.80
2019-05-03T23:21:24.739Z,4.30
2019-05-03T23:23:54.943Z,4.30
2019-05-03T23:26:25.261Z,4.77
2019-05-03T23:28:54.980Z,4.70
2019-05-03T23:31:24.997Z,4.30
2019-05-03T23:33:54.459Z,4.70
2019-05-03T23:36:32.759Z,4.30
2019-05-03T23:38:54.478Z,4.30
2019-05-03T23:41:24.427Z,4.00
2019-05-03T23:43:52.499Z,4.60
2019-05-03T23:46:22.369Z,4.37
2019-05-03T23:48:50.588Z,4.30
2019-05-03T23:51:37.275Z,4.53
2019-05-03T23:54:06.144Z,4.10
2019-05-03T23:56:35.080Z,4.00
2019-05-03T23:59:05.377Z,4.30
